createdAt,value
2022-12-09T00:01:16.697Z,62.60
2022-12-09T00:03:44.878Z,58.60
2022-12-09T00:06:16.455Z,56.60
2022-12-09T00:08:44.989Z,57.80
2022-12-09T00:11:13.103Z,57.00
2022-12-09T00:13:41.656Z,56.80
2022-12-09T00:16:12.170Z,57.50
2022-12-09T00:18:44.316Z,57.10
2022-12-09T00:21:19.853Z,56.90
2022-12-09T00:23:48.186Z,61.40
2022-12-09T00:26:16.721Z,63.00
2022-12-09T00:28:45.014Z,58.50
2022-12-09T00:31:18.051Z,58.90
2022-12-09T00:33:46.450Z,60.10
2022-12-09T00:36:16.607Z,59.60
2022-12-09T00:38:44.252Z,59.50
2022-12-09T00:41:13.191Z,59.80
2022-12-09T00:43:41.761Z,58.10
2022-12-09T00:46:10.827Z,60.10
2022-12-09T00:48:38.856Z,57.10
2022-12-09T00:51:08.277Z,56.80
2022-12-09T00:53:35.965Z,55.50
2022-12-09T00:56:04.377Z,57.10
2022-12-09T00:58:32.112Z,58.50
2022-12-09T01:01:00.277Z,54.90
2022-12-09T01:03:29.881Z,55.80
2022-12-09T01:05:58.000Z,54.90
2022-12-09T01:08:25.954Z,53.20
2022-12-09T01:10:53.793Z,54.00
2022-12-09T01:13:21.649Z,53.30
2022-12-09T01:15:49.534Z,52.00
2022-12-09T01:18:17.402Z,53.00
2022-12-09T01:20:45.081Z,53.50
2022-12-09T01:23:13.176Z,51.90
2022-12-09T01:25:41.153Z,50.50
2022-12-09T01:28:09.046Z,51.40
2022-12-09T01:30:37.091Z,50.60
2022-12-09T01:33:06.465Z,49.80
2022-12-09T01:35:34.349Z,50.20
2022-12-09T01:38:02.106Z,50.70
2022-12-09T01:40:29.902Z,51.80
2022-12-09T01:42:57.624Z,50.80
2022-12-09T01:45:32.827Z,52.70
2022-12-09T01:48:11.140Z,51.30
2022-12-09T01:50:55.709Z,52.80
2022-12-09T01:53:26.643Z,53.40
2022-12-09T01:55:55.755Z,54.40
2022-12-09T01:58:24.098Z,52.50
2022-12-09T02:00:52.727Z,54.20
2022-12-09T02:03:21.585Z,54.40
2022-12-09T02:05:49.860Z,54.30
2022-12-09T02:08:19.693Z,55.40
2022-12-09T02:11:08.502Z,55.70
2022-12-09T02:13:47.823Z,54.50
2022-12-09T02:16:20.149Z,56.00
2022-12-09T02:19:17.055Z,56.80
2022-12-09T02:21:53.860Z,56.80
2022-12-09T02:24:41.454Z,56.40
2022-12-09T02:27:25.198Z,56.70
2022-12-09T02:30:09.172Z,58.90
2022-12-09T02:33:06.442Z,55.90
2022-12-09T02:35:48.106Z,57.10
2022-12-09T02:38:30.841Z,57.90
2022-12-09T02:41:10.455Z,57.40
2022-12-09T02:43:49.688Z,57.90
2022-12-09T02:46:21.085Z,56.70
2022-12-09T02:48:53.579Z,56.30
2022-12-09T02:51:22.826Z,54.80
2022-12-09T02:53:55.534Z,56.50
2022-12-09T02:56:24.308Z,57.20
2022-12-09T02:58:52.331Z,55.90
2022-12-09T03:01:35.681Z,57.80
2022-12-09T03:04:03.997Z,57.30
2022-12-09T03:06:37.835Z,56.00
2022-12-09T03:09:35.545Z,56.30
2022-12-09T03:12:10.076Z,55.70
2022-12-09T03:14:47.392Z,54.90
2022-12-09T03:17:25.837Z,54.90
2022-12-09T03:19:57.809Z,54.20
2022-12-09T03:22:29.264Z,53.30
2022-12-09T03:25:05.061Z,52.30
2022-12-09T03:27:35.967Z,53.90
2022-12-09T03:30:07.588Z,52.30
2022-12-09T03:32:37.738Z,50.50
2022-12-09T03:35:10.976Z,51.30
2022-12-09T03:37:40.155Z,51.00
2022-12-09T03:40:14.359Z,51.60
2022-12-09T03:43:05.984Z,49.70
2022-12-09T03:45:33.958Z,48.50
2022-12-09T03:48:02.366Z,47.90
2022-12-09T03:50:36.398Z,47.70
2022-12-09T03:53:13.757Z,50.00
2022-12-09T03:55:46.910Z,48.00
2022-12-09T03:58:15.153Z,48.20
2022-12-09T04:00:43.815Z,45.90
2022-12-09T04:03:13.836Z,47.30
2022-12-09T04:05:43.253Z,48.60
2022-12-09T04:08:11.433Z,48.40
2022-12-09T04:10:40.428Z,50.00
2022-12-09T04:13:08.553Z,49.00
2022-12-09T04:15:36.200Z,49.30
2022-12-09T04:18:04.208Z,49.70
2022-12-09T04:20:32.084Z,49.50
2022-12-09T04:23:00.258Z,48.20
2022-12-09T04:25:28.078Z,49.60
2022-12-09T04:30:32.094Z,41.80
2022-12-09T04:33:00.862Z,48.10
2022-12-09T04:35:28.826Z,50.10
2022-12-09T04:37:56.627Z,49.00
2022-12-09T04:40:24.992Z,48.70
2022-12-09T04:42:52.888Z,49.00
2022-12-09T04:45:20.880Z,49.80
2022-12-09T04:47:48.598Z,49.60
2022-12-09T04:50:17.284Z,49.10
2022-12-09T04:52:45.534Z,51.40
2022-12-09T04:55:14.331Z,49.70
2022-12-09T04:57:43.032Z,49.70
2022-12-09T05:00:13.956Z,54.20
2022-12-09T05:02:42.221Z,49.50
2022-12-09T05:05:10.464Z,50.10
2022-12-09T05:07:38.914Z,48.40
2022-12-09T05:10:08.144Z,50.30
2022-12-09T05:12:36.106Z,50.30
2022-12-09T05:15:04.537Z,48.20
2022-12-09T05:17:32.512Z,48.30
2022-12-09T05:20:00.417Z,48.50
2022-12-09T05:22:28.270Z,49.10
2022-12-09T05:24:56.111Z,48.30
2022-12-09T05:27:24.497Z,49.70
2022-12-09T05:29:52.548Z,50.00
2022-12-09T05:32:21.563Z,49.30
2022-12-09T05:34:49.656Z,51.40
2022-12-09T05:37:17.726Z,50.20
2022-12-09T05:39:45.908Z,49.90
2022-12-09T05:42:13.849Z,50.90
2022-12-09T05:44:41.703Z,52.80
2022-12-09T05:47:09.930Z,53.40
2022-12-09T05:49:39.075Z,56.00
2022-12-09T05:52:06.949Z,55.50
2022-12-09T05:54:34.669Z,55.60
2022-12-09T05:57:04.435Z,56.20
2022-12-09T05:59:32.783Z,53.50
2022-12-09T06:02:04.969Z,54.10
2022-12-09T06:04:36.761Z,51.90
2022-12-09T06:07:04.720Z,54.60
2022-12-09T06:09:33.901Z,54.20
2022-12-09T06:12:03.607Z,53.80
2022-12-09T06:14:31.465Z,52.40
2022-12-09T06:16:59.514Z,52.50
2022-12-09T06:19:27.643Z,53.90
2022-12-09T06:21:55.530Z,53.90
2022-12-09T06:24:23.459Z,55.50
2022-12-09T06:26:55.137Z,54.80
2022-12-09T06:29:22.970Z,55.30
2022-12-09T06:31:51.460Z,54.00
2022-12-09T06:34:20.294Z,55.60
2022-12-09T06:36:48.755Z,54.30
2022-12-09T06:39:17.184Z,58.00
2022-12-09T06:41:45.638Z,54.40
2022-12-09T06:44:19.983Z,53.70
2022-12-09T06:46:49.714Z,58.20
2022-12-09T06:49:18.243Z,54.50
2022-12-09T06:51:46.280Z,54.40
2022-12-09T06:54:14.243Z,54.40
2022-12-09T06:56:42.076Z,55.00
2022-12-09T06:59:10.805Z,54.20
2022-12-09T07:01:40.913Z,55.60
2022-12-09T07:04:10.778Z,57.30
2022-12-09T07:06:43.724Z,59.40
2022-12-09T07:09:17.875Z,79.50
2022-12-09T07:11:47.162Z,82.30
2022-12-09T07:14:16.771Z,68.60
2022-12-09T07:16:45.334Z,68.20
2022-12-09T07:19:21.526Z,63.80
2022-12-09T07:21:50.901Z,64.00
2022-12-09T07:24:20.189Z,61.70
2022-12-09T07:26:48.666Z,60.30
2022-12-09T07:29:17.153Z,63.50
2022-12-09T07:31:45.284Z,60.60
2022-12-09T07:34:13.627Z,60.50
2022-12-09T07:36:41.991Z,63.10
2022-12-09T07:39:16.367Z,62.70
2022-12-09T07:41:44.673Z,64.30
2022-12-09T07:44:12.786Z,61.80
2022-12-09T07:46:41.123Z,59.80
2022-12-09T07:49:11.271Z,55.80
2022-12-09T07:51:40.152Z,56.10
2022-12-09T07:54:12.360Z,55.70
2022-12-09T07:56:40.806Z,53.70
2022-12-09T07:59:09.817Z,55.60
2022-12-09T08:01:38.587Z,54.80
2022-12-09T08:04:07.611Z,56.00
2022-12-09T08:06:38.051Z,57.10
2022-12-09T08:09:09.159Z,56.50
2022-12-09T08:11:37.606Z,57.30
2022-12-09T08:14:12.167Z,56.30
2022-12-09T08:16:42.015Z,57.50
2022-12-09T08:19:10.609Z,58.00
2022-12-09T08:21:39.181Z,54.90
2022-12-09T08:24:08.156Z,54.50
2022-12-09T08:26:40.272Z,53.80
2022-12-09T08:29:10.956Z,55.70
2022-12-09T08:31:42.406Z,54.40
2022-12-09T08:34:11.150Z,56.20
2022-12-09T08:36:39.368Z,65.30
2022-12-09T08:39:07.856Z,54.00
2022-12-09T08:41:38.678Z,52.80
2022-12-09T08:44:13.763Z,52.80
2022-12-09T08:46:44.397Z,56.80
2022-12-09T08:49:13.586Z,57.10
2022-12-09T08:51:41.952Z,61.50
2022-12-09T08:54:09.924Z,55.30
2022-12-09T08:56:38.020Z,52.80
2022-12-09T08:59:06.081Z,53.20
2022-12-09T09:01:35.841Z,201.00
2022-12-09T09:04:08.721Z,63.50
2022-12-09T09:06:38.612Z,59.60
2022-12-09T09:09:09.002Z,67.30
2022-12-09T09:11:37.498Z,59.50
2022-12-09T09:14:06.814Z,67.20
2022-12-09T09:16:35.783Z,61.90
2022-12-09T09:19:06.702Z,59.80
2022-12-09T09:21:35.880Z,61.10
2022-12-09T09:24:12.107Z,59.40
2022-12-09T09:26:41.789Z,58.10
2022-12-09T09:29:15.110Z,58.60
2022-12-09T09:31:43.126Z,62.20
2022-12-09T09:34:11.462Z,62.70
2022-12-09T09:36:40.406Z,71.10
2022-12-09T09:39:08.605Z,69.00
2022-12-09T09:41:45.496Z,72.50
2022-12-09T09:44:33.078Z,72.90
2022-12-09T09:47:05.434Z,70.10
2022-12-09T09:49:55.589Z,70.40
2022-12-09T09:52:26.787Z,73.10
2022-12-09T09:54:57.119Z,69.20
2022-12-09T09:57:31.351Z,73.80
2022-12-09T10:00:22.848Z,74.30
2022-12-09T10:02:59.723Z,70.70
2022-12-09T10:05:33.612Z,73.30
2022-12-09T10:08:32.168Z,71.80
2022-12-09T10:11:10.996Z,76.80
2022-12-09T10:14:17.346Z,77.00
2022-12-09T10:16:57.456Z,75.50
2022-12-09T10:19:51.844Z,74.50
2022-12-09T10:22:25.713Z,74.70
2022-12-09T10:24:57.182Z,74.60
2022-12-09T10:27:29.851Z,74.80
2022-12-09T10:30:00.038Z,74.30
2022-12-09T10:32:34.537Z,76.30
2022-12-09T10:35:14.183Z,77.10
2022-12-09T10:37:42.449Z,76.50
2022-12-09T10:40:11.127Z,78.20
2022-12-09T10:43:07.272Z,73.90
2022-12-09T10:46:15.214Z,76.00
2022-12-09T10:48:33.089Z,72.70
2022-12-09T10:51:05.273Z,71.00
2022-12-09T10:53:34.659Z,73.60
2022-12-09T10:56:03.538Z,72.10
2022-12-09T10:58:32.512Z,73.80
2022-12-09T11:01:10.327Z,75.00
2022-12-09T11:03:56.101Z,72.70
2022-12-09T11:06:29.848Z,75.60
2022-12-09T11:09:01.141Z,77.40
2022-12-09T11:11:58.634Z,77.10
2022-12-09T11:14:56.968Z,75.00
2022-12-09T11:17:28.450Z,77.90
2022-12-09T11:20:22.648Z,78.00
2022-12-09T11:23:03.562Z,76.70
2022-12-09T11:25:34.670Z,74.00
2022-12-09T11:28:13.775Z,76.20
2022-12-09T11:33:58.114Z,71.50
2022-12-09T11:36:33.444Z,73.30
2022-12-09T11:39:28.869Z,69.70
2022-12-09T11:42:17.455Z,71.70
2022-12-09T11:44:48.490Z,71.10
2022-12-09T11:47:50.480Z,67.80
2022-12-09T11:50:31.480Z,67.40
2022-12-09T11:53:17.984Z,70.20
2022-12-09T11:55:52.646Z,67.30
2022-12-09T11:58:25.662Z,65.10
2022-12-09T12:00:59.910Z,64.10
2022-12-09T12:03:38.191Z,63.30
2022-12-09T12:06:12.209Z,64.60
2022-12-09T12:08:46.978Z,64.50
2022-12-09T12:11:28.935Z,63.50
2022-12-09T12:14:04.578Z,65.60
2022-12-09T12:16:52.569Z,65.00
2022-12-09T12:19:38.050Z,66.30
2022-12-09T12:22:24.649Z,65.70
2022-12-09T12:25:17.201Z,61.40
2022-12-09T12:28:01.220Z,62.40
2022-12-09T12:30:46.212Z,63.20
2022-12-09T12:36:45.254Z,60.20
2022-12-09T12:39:40.444Z,59.20
2022-12-09T12:42:26.676Z,57.90
2022-12-09T12:45:32.875Z,58.50
2022-12-09T12:48:24.543Z,56.30
2022-12-09T12:51:03.112Z,56.30
2022-12-09T12:54:09.238Z,56.20
2022-12-09T12:57:09.943Z,55.30
2022-12-09T12:59:54.329Z,54.20
2022-12-09T13:02:31.169Z,55.80
2022-12-09T13:05:03.704Z,55.30
2022-12-09T13:07:41.669Z,58.50
2022-12-09T13:10:35.268Z,58.20
2022-12-09T13:13:04.940Z,65.00
2022-12-09T13:15:39.259Z,65.40
2022-12-09T13:18:14.475Z,68.60
2022-12-09T13:20:46.695Z,66.30
2022-12-09T13:23:23.447Z,62.50
2022-12-09T13:25:57.395Z,61.30
2022-12-09T13:28:34.053Z,62.50
2022-12-09T13:31:03.357Z,62.80
2022-12-09T13:33:38.923Z,75.10
2022-12-09T13:36:36.958Z,76.80
2022-12-09T13:39:05.229Z,70.70
2022-12-09T13:41:55.830Z,73.20
2022-12-09T13:44:28.914Z,77.80
2022-12-09T13:47:13.892Z,76.20
2022-12-09T13:49:41.794Z,78.70
2022-12-09T13:52:09.524Z,77.80
2022-12-09T13:54:47.223Z,79.00
2022-12-09T13:57:23.951Z,73.90
2022-12-09T13:59:59.299Z,76.40
2022-12-09T14:02:41.021Z,76.00
2022-12-09T14:05:15.199Z,76.00
2022-12-09T14:07:48.769Z,77.90
2022-12-09T14:10:40.655Z,75.00
2022-12-09T14:13:38.053Z,75.90
2022-12-09T14:16:27.813Z,79.40
2022-12-09T14:18:58.751Z,80.20
2022-12-09T14:21:35.422Z,81.30
2022-12-09T14:24:09.549Z,78.50
2022-12-09T14:26:52.674Z,78.70
2022-12-09T14:29:42.285Z,82.30
2022-12-09T14:32:48.313Z,81.80
2022-12-09T14:35:15.953Z,86.10
2022-12-09T14:38:02.376Z,86.30
2022-12-09T14:40:52.046Z,85.90
2022-12-09T14:43:49.968Z,80.70
2022-12-09T14:46:25.727Z,80.60
2022-12-09T14:49:00.557Z,79.60
2022-12-09T14:51:34.794Z,78.90
2022-12-09T14:54:26.801Z,83.50
2022-12-09T14:56:59.266Z,82.10
2022-12-09T14:59:29.509Z,82.40
2022-12-09T15:02:04.242Z,83.80
2022-12-09T15:04:34.770Z,83.10
2022-12-09T15:07:16.061Z,84.10
2022-12-09T15:09:48.240Z,86.50
2022-12-09T15:12:16.059Z,86.50
2022-12-09T15:14:47.075Z,90.70
2022-12-09T15:17:32.360Z,90.70
2022-12-09T15:20:12.126Z,92.60
2022-12-09T15:22:40.321Z,92.30
2022-12-09T15:25:17.157Z,93.90
2022-12-09T15:27:59.658Z,92.30
2022-12-09T15:30:30.633Z,91.80
2022-12-09T15:32:58.796Z,92.90
2022-12-09T15:35:29.715Z,96.40
2022-12-09T15:38:00.266Z,96.30
2022-12-09T15:40:30.212Z,97.00
2022-12-09T15:43:01.781Z,94.80
2022-12-09T15:45:32.482Z,118.90
2022-12-09T15:48:09.412Z,120.80
2022-12-09T15:50:51.753Z,121.00
2022-12-09T15:53:23.240Z,122.70
2022-12-09T15:55:54.036Z,144.80
2022-12-09T15:58:25.903Z,160.60
2022-12-09T16:00:53.936Z,144.40
2022-12-09T16:03:25.246Z,133.70
2022-12-09T16:05:55.352Z,133.40
2022-12-09T16:08:23.504Z,138.60
2022-12-09T16:10:51.981Z,141.90
2022-12-09T16:13:21.345Z,128.70
2022-12-09T16:15:54.704Z,115.20
2022-12-09T16:18:46.944Z,111.10
2022-12-09T16:21:14.784Z,109.40
2022-12-09T16:23:45.017Z,108.90
2022-12-09T16:26:30.457Z,107.80
2022-12-09T16:29:01.128Z,104.50
2022-12-09T16:31:29.382Z,108.60
2022-12-09T16:33:57.690Z,108.20
2022-12-09T16:36:30.967Z,107.90
2022-12-09T16:39:07.912Z,110.40
2022-12-09T16:41:51.145Z,109.10
2022-12-09T16:44:21.217Z,117.20
2022-12-09T16:46:48.967Z,116.00
2022-12-09T16:49:16.653Z,114.10
2022-12-09T16:51:44.545Z,117.40
2022-12-09T16:54:20.056Z,124.60
2022-12-09T16:56:48.535Z,124.00
2022-12-09T16:59:16.167Z,121.90
2022-12-09T17:01:44.006Z,133.10
2022-12-09T17:04:30.213Z,137.20
2022-12-09T17:06:57.898Z,142.40
2022-12-09T17:09:25.548Z,148.40
2022-12-09T17:11:53.351Z,142.70
2022-12-09T17:14:21.229Z,149.40
2022-12-09T17:16:49.324Z,150.30
2022-12-09T17:19:20.444Z,154.30
2022-12-09T17:21:48.124Z,158.70
2022-12-09T17:24:15.985Z,157.90
2022-12-09T17:26:43.696Z,171.40
2022-12-09T17:29:11.523Z,174.70
2022-12-09T17:31:39.197Z,170.50
2022-12-09T17:34:07.311Z,180.90
2022-12-09T17:36:34.960Z,187.80
2022-12-09T17:39:03.594Z,191.80
2022-12-09T17:41:31.260Z,189.70
2022-12-09T17:44:02.128Z,195.40
2022-12-09T17:46:29.948Z,185.20
2022-12-09T17:49:00.276Z,192.90
2022-12-09T17:51:33.923Z,203.70
2022-12-09T17:54:04.876Z,201.20
2022-12-09T17:56:33.314Z,195.80
2022-12-09T17:59:04.199Z,201.90
2022-12-09T18:01:34.045Z,200.20
2022-12-09T18:04:08.245Z,211.30
2022-12-09T18:06:38.566Z,198.10
2022-12-09T18:09:08.568Z,195.90
2022-12-09T18:11:36.639Z,184.50
2022-12-09T18:14:05.533Z,198.30
2022-12-09T18:16:34.573Z,199.80
2022-12-09T18:19:05.145Z,177.10
2022-12-09T18:21:34.013Z,180.00
2022-12-09T18:24:01.971Z,180.90
2022-12-09T18:26:32.917Z,192.50
2022-12-09T18:29:03.701Z,183.70
2022-12-09T18:31:31.678Z,190.50
2022-12-09T18:33:59.374Z,192.10
2022-12-09T18:36:28.604Z,190.30
2022-12-09T18:38:58.305Z,187.90
2022-12-09T18:41:29.484Z,184.30
2022-12-09T18:43:59.347Z,191.70
2022-12-09T18:46:36.523Z,178.10
2022-12-09T18:49:10.731Z,188.80
2022-12-09T18:51:39.779Z,193.40
2022-12-09T18:54:08.368Z,198.70
2022-12-09T18:56:37.044Z,205.90
2022-12-09T18:59:07.542Z,190.90
2022-12-09T19:01:39.703Z,194.10
2022-12-09T19:04:16.412Z,192.90
2022-12-09T19:06:46.341Z,193.40
2022-12-09T19:09:18.236Z,193.30
2022-12-09T19:11:46.983Z,189.50
2022-12-09T19:14:16.034Z,191.50
2022-12-09T19:16:44.266Z,189.20
2022-12-09T19:19:14.216Z,187.20
2022-12-09T19:21:42.722Z,183.30
2022-12-09T19:24:15.051Z,359.90
2022-12-09T19:26:42.968Z,204.90
2022-12-09T19:29:12.115Z,250.10
2022-12-09T19:31:44.855Z,200.90
2022-12-09T19:34:15.863Z,171.70
2022-12-09T19:36:44.390Z,213.30
2022-12-09T19:39:13.739Z,242.90
2022-12-09T19:41:43.219Z,223.10
2022-12-09T19:44:31.139Z,167.10
2022-12-09T19:47:04.185Z,163.30
2022-12-09T19:49:32.234Z,156.50
2022-12-09T19:52:00.223Z,160.80
2022-12-09T19:54:29.571Z,165.90
2022-12-09T19:56:57.242Z,172.00
2022-12-09T19:59:26.505Z,173.90
2022-12-09T20:01:54.409Z,189.00
2022-12-09T20:07:12.190Z,187.30
2022-12-09T20:09:39.886Z,189.30
2022-12-09T20:12:07.530Z,183.80
2022-12-09T20:14:35.307Z,190.40
2022-12-09T20:17:02.920Z,179.10
2022-12-09T20:19:31.434Z,176.90
2022-12-09T20:21:59.203Z,177.80
2022-12-09T20:24:27.587Z,186.50
2022-12-09T20:26:55.987Z,250.90
2022-12-09T20:29:23.621Z,178.50
2022-12-09T20:31:52.670Z,172.90
2022-12-09T20:34:20.329Z,176.00
2022-12-09T20:36:48.594Z,176.60
2022-12-09T20:39:18.721Z,170.20
2022-12-09T20:41:47.352Z,183.10
2022-12-09T20:44:16.705Z,175.00
2022-12-09T20:46:47.295Z,182.80
2022-12-09T20:49:15.183Z,178.30
2022-12-09T20:51:47.024Z,217.20
2022-12-09T20:54:14.817Z,178.20
2022-12-09T20:56:42.532Z,185.60
2022-12-09T20:59:12.064Z,185.00
2022-12-09T21:01:40.284Z,185.40
2022-12-09T21:04:08.585Z,171.30
2022-12-09T21:06:38.897Z,182.10
2022-12-09T21:09:14.755Z,187.60
2022-12-09T21:11:42.816Z,176.40
2022-12-09T21:14:11.496Z,183.30
2022-12-09T21:16:41.564Z,188.20
2022-12-09T21:19:13.405Z,182.80
2022-12-09T21:21:42.950Z,183.10
2022-12-09T21:24:12.061Z,183.60
2022-12-09T21:26:40.811Z,189.60
2022-12-09T21:29:10.662Z,185.20
2022-12-09T21:31:40.846Z,190.70
2022-12-09T21:34:09.719Z,188.00
2022-12-09T21:36:39.797Z,202.90
2022-12-09T21:39:07.495Z,221.00
2022-12-09T21:41:36.539Z,195.20
2022-12-09T21:44:05.163Z,191.90
2022-12-09T21:46:37.373Z,185.90
2022-12-09T21:49:06.689Z,186.50
2022-12-09T21:51:35.060Z,192.20
2022-12-09T21:54:03.600Z,193.60
2022-12-09T21:56:33.547Z,190.60
2022-12-09T21:59:02.434Z,190.30
2022-12-09T22:01:33.340Z,197.00
2022-12-09T22:04:03.947Z,192.90
2022-12-09T22:06:31.758Z,179.60
2022-12-09T22:09:00.983Z,164.50
2022-12-09T22:11:31.681Z,172.10
2022-12-09T22:14:01.106Z,164.10
2022-12-09T22:16:31.926Z,165.80
2022-12-09T22:19:00.942Z,311.40
2022-12-09T22:21:30.735Z,169.50
2022-12-09T22:24:03.235Z,173.50
2022-12-09T22:26:31.599Z,158.00
2022-12-09T22:29:00.819Z,166.00
2022-12-09T22:31:31.690Z,167.40
2022-12-09T22:34:05.239Z,159.20
2022-12-09T22:36:34.724Z,167.60
2022-12-09T22:39:04.174Z,165.30
2022-12-09T22:41:34.237Z,169.00
2022-12-09T22:44:02.451Z,169.00
2022-12-09T22:46:33.880Z,175.00
2022-12-09T22:49:04.721Z,172.70
2022-12-09T22:51:34.860Z,169.10
2022-12-09T22:54:06.237Z,180.40
2022-12-09T22:56:35.737Z,172.80
2022-12-09T22:59:03.811Z,173.50
2022-12-09T23:01:33.524Z,192.70
2022-12-09T23:04:01.689Z,177.60
2022-12-09T23:06:29.512Z,168.90
2022-12-09T23:08:57.515Z,175.30
2022-12-09T23:11:26.837Z,172.90
2022-12-09T23:13:55.479Z,163.30
2022-12-09T23:16:24.406Z,170.20
2022-12-09T23:18:54.237Z,155.30
2022-12-09T23:21:25.234Z,169.00
2022-12-09T23:23:55.053Z,162.00
2022-12-09T23:26:25.836Z,163.90
2022-12-09T23:28:56.101Z,171.10
2022-12-09T23:31:28.159Z,180.20
2022-12-09T23:33:56.299Z,178.30
2022-12-09T23:36:27.400Z,167.50
2022-12-09T23:38:55.076Z,165.90
2022-12-09T23:41:23.878Z,155.60
2022-12-09T23:43:52.505Z,162.80
2022-12-09T23:46:24.129Z,166.20
2022-12-09T23:48:52.745Z,156.70
2022-12-09T23:51:30.051Z,162.10
2022-12-09T23:54:00.521Z,154.70
2022-12-09T23:56:30.719Z,155.60
2022-12-09T23:59:01.219Z,154.10
